Milledgeville, GA

04:32 PM EST del 07 Febbraio 2016 (GMT -0500)
Baldwin County | | Change Station
CLOSE
Current Station
Aeroporto
Location: Milledgeville,
Altitudine: 384 ft
Stazioni meteo nelle vicinanze

Alt. 384 ft 33.15 °N, 83.24 °W | Updated 17 minutes ago

Sereno
Sereno
57 °F
Sembra 57 °F
N
6
Vento Variabile Vento da NNO

Oggi
Massima -- | Minima -- °F
--% Possibilità di precip.
Ieri
Massima -- | Minima -- °F
Precip. -- in
Pressione 29.98 in
Visibilità 10.0 miglia
Nuvole Sereno
Punto di rugiada 23 °F
Umidità 27%
Piovosità 0.00 in
Spessore del manto nevoso Non disponibile.
7:24 AM 6:10 PM
Luna calante, 1% visible
METAR KMLJ 072115Z AUTO 34005KT 10SM CLR 14/M05 A2998 RMK AO2
Pressione 29.98 in
Visibilità 10.0 miglia
Nuvole Sereno
Punto di rugiada 23 °F
Umidità 27%
Piovosità 0.00 in
Spessore del manto nevoso Non disponibile.
7:24 AM 6:10 PM
Luna calante, 1% visible
METAR KMLJ 072115Z AUTO 34005KT 10SM CLR 14/M05 A2998 RMK AO2

10-Day Weather Forecast

Almanac

Astronomia

Feb. 07, 2016 Alba Tramonto
Ora attuale
Crepuscolo civile
Crepuscolo nautico
Crepuscolo astronomico
Luna
Estensione della luce visibile
Lunghezza del giorno
Tomorrow will be .
, % of the Moon is Illuminated

Gli estremi di oggi

State Highs State Lows

Community

WunderPhotos

Upload Photos

1,891,301 foto caricate!

WunderBlog® & News

Nearby

Qualità dell'aria

  Qualità dell'aria Indice AQ Inquinante
Not available.

Profondità neve

Stazione Profondità Altitudine

Attività sismica

Città  Distanza Mag. Data & Ora
Minimo Magnitudo Mostrato è 2.5.

Temperature delle acque costiere

Località Temperatura

Stations

Stazioni meteo nelle vicinanze

Ubicazione della stazione Temp. Raffreddamento del vento Punto di rugiada Umidità Vento Precip. Alt. Aggiornato Tipo
                   

Watches & Warnings

There are currently no watches in effect.